sensor_id;sensor_type;location;lat;lon;timestamp;P1;durP1;ratioP1;P2;durP2;ratioP2
6898;SDS011;3488;42.616;23.350;2022-12-24T00:01:37;25.35;;;12.82;;
6898;SDS011;3488;42.616;23.350;2022-12-24T00:04:04;20.15;;;12.30;;
6898;SDS011;3488;42.616;23.350;2022-12-24T00:06:32;19.70;;;11.57;;
6898;SDS011;3488;42.616;23.350;2022-12-24T00:08:59;18.67;;;10.65;;
6898;SDS011;3488;42.616;23.350;2022-12-24T00:11:26;16.00;;;10.48;;
6898;SDS011;3488;42.616;23.350;2022-12-24T00:13:53;17.30;;;10.55;;
6898;SDS011;3488;42.616;23.350;2022-12-24T00:16:20;12.38;;;9.13;;
6898;SDS011;3488;42.616;23.350;2022-12-24T00:18:48;14.07;;;8.70;;
6898;SDS011;3488;42.616;23.350;2022-12-24T00:21:15;13.70;;;7.75;;
6898;SDS011;3488;42.616;23.350;2022-12-24T00:23:42;12.57;;;8.40;;
6898;SDS011;3488;42.616;23.350;2022-12-24T00:26:09;14.85;;;10.05;;
6898;SDS011;3488;42.616;23.350;2022-12-24T00:28:37;9.10;;;6.43;;
6898;SDS011;3488;42.616;23.350;2022-12-24T00:31:07;16.10;;;8.15;;
6898;SDS011;3488;42.616;23.350;2022-12-24T00:33:35;13.15;;;9.25;;
6898;SDS011;3488;42.616;23.350;2022-12-24T00:36:04;13.00;;;9.00;;
6898;SDS011;3488;42.616;23.350;2022-12-24T00:38:32;12.90;;;8.65;;
6898;SDS011;3488;42.616;23.350;2022-12-24T00:40:59;15.30;;;9.45;;
6898;SDS011;3488;42.616;23.350;2022-12-24T00:43:26;14.50;;;9.88;;
6898;SDS011;3488;42.616;23.350;2022-12-24T00:45:53;13.77;;;9.10;;
6898;SDS011;3488;42.616;23.350;2022-12-24T00:48:20;14.30;;;10.60;;
6898;SDS011;3488;42.616;23.350;2022-12-24T00:50:49;17.25;;;10.65;;
6898;SDS011;3488;42.616;23.350;2022-12-24T00:53:18;13.20;;;10.55;;
6898;SDS011;3488;42.616;23.350;2022-12-24T00:55:45;12.43;;;9.80;;
6898;SDS011;3488;42.616;23.350;2022-12-24T00:58:12;12.68;;;9.32;;
6898;SDS011;3488;42.616;23.350;2022-12-24T01:00:39;16.55;;;9.10;;
6898;SDS011;3488;42.616;23.350;2022-12-24T01:03:06;18.90;;;11.63;;
6898;SDS011;3488;42.616;23.350;2022-12-24T01:05:33;15.57;;;9.98;;
6898;SDS011;3488;42.616;23.350;2022-12-24T01:07:59;13.55;;;9.50;;
6898;SDS011;3488;42.616;23.350;2022-12-24T01:10:27;16.67;;;9.07;;
6898;SDS011;3488;42.616;23.350;2022-12-24T01:12:54;11.55;;;7.13;;
6898;SDS011;3488;42.616;23.350;2022-12-24T01:15:21;10.63;;;7.40;;
6898;SDS011;3488;42.616;23.350;2022-12-24T01:17:48;8.75;;;6.13;;
6898;SDS011;3488;42.616;23.350;2022-12-24T01:20:15;7.38;;;6.22;;
6898;SDS011;3488;42.616;23.350;2022-12-24T01:22:43;8.48;;;7.28;;
6898;SDS011;3488;42.616;23.350;2022-12-24T01:25:10;14.43;;;9.40;;
6898;SDS011;3488;42.616;23.350;2022-12-24T01:27:39;16.45;;;9.63;;
6898;SDS011;3488;42.616;23.350;2022-12-24T01:30:07;14.57;;;8.35;;
6898;SDS011;3488;42.616;23.350;2022-12-24T01:32:36;13.38;;;9.38;;
6898;SDS011;3488;42.616;23.350;2022-12-24T01:35:03;14.05;;;9.13;;
6898;SDS011;3488;42.616;23.350;2022-12-24T01:37:31;10.20;;;8.60;;
6898;SDS011;3488;42.616;23.350;2022-12-24T01:39:57;12.15;;;8.18;;
6898;SDS011;3488;42.616;23.350;2022-12-24T01:42:40;14.55;;;9.65;;
6898;SDS011;3488;42.616;23.350;2022-12-24T01:45:39;12.40;;;8.65;;
6898;SDS011;3488;42.616;23.350;2022-12-24T01:48:12;12.07;;;8.52;;
6898;SDS011;3488;42.616;23.350;2022-12-24T01:50:43;13.10;;;8.25;;
6898;SDS011;3488;42.616;23.350;2022-12-24T01:53:10;15.85;;;9.57;;
6898;SDS011;3488;42.616;23.350;2022-12-24T01:55:39;12.82;;;9.68;;
6898;SDS011;3488;42.616;23.350;2022-12-24T01:58:09;13.40;;;8.68;;
6898;SDS011;3488;42.616;23.350;2022-12-24T02:00:39;13.85;;;9.20;;
6898;SDS011;3488;42.616;23.350;2022-12-24T02:03:06;12.60;;;7.57;;
6898;SDS011;3488;42.616;23.350;2022-12-24T02:05:35;8.68;;;6.65;;
6898;SDS011;3488;42.616;23.350;2022-12-24T02:08:08;9.05;;;6.63;;
6898;SDS011;3488;42.616;23.350;2022-12-24T02:10:35;10.73;;;6.78;;
6898;SDS011;3488;42.616;23.350;2022-12-24T02:13:04;5.20;;;4.70;;
6898;SDS011;3488;42.616;23.350;2022-12-24T02:15:36;3.80;;;3.42;;
6898;SDS011;3488;42.616;23.350;2022-12-24T02:18:13;2.20;;;2.00;;
6898;SDS011;3488;42.616;23.350;2022-12-24T02:20:53;4.38;;;3.17;;
6898;SDS011;3488;42.616;23.350;2022-12-24T02:23:43;5.15;;;4.15;;
6898;SDS011;3488;42.616;23.350;2022-12-24T02:26:33;5.78;;;3.53;;
6898;SDS011;3488;42.616;23.350;2022-12-24T02:29:23;4.00;;;3.65;;
6898;SDS011;3488;42.616;23.350;2022-12-24T02:32:06;7.43;;;5.30;;
6898;SDS011;3488;42.616;23.350;2022-12-24T02:34:39;6.80;;;5.13;;
6898;SDS011;3488;42.616;23.350;2022-12-24T02:37:13;5.95;;;5.03;;
6898;SDS011;3488;42.616;23.350;2022-12-24T02:39:45;7.72;;;4.00;;
6898;SDS011;3488;42.616;23.350;2022-12-24T02:42:19;3.90;;;3.22;;
6898;SDS011;3488;42.616;23.350;2022-12-24T02:44:50;3.38;;;2.40;;
6898;SDS011;3488;42.616;23.350;2022-12-24T02:47:23;2.85;;;2.20;;
6898;SDS011;3488;42.616;23.350;2022-12-24T02:49:53;2.22;;;2.03;;
6898;SDS011;3488;42.616;23.350;2022-12-24T02:52:26;3.42;;;2.35;;
6898;SDS011;3488;42.616;23.350;2022-12-24T02:54:54;2.22;;;2.05;;
6898;SDS011;3488;42.616;23.350;2022-12-24T02:57:23;2.20;;;2.10;;
6898;SDS011;3488;42.616;23.350;2022-12-24T02:59:59;4.15;;;2.85;;
6898;SDS011;3488;42.616;23.350;2022-12-24T03:02:35;1.73;;;1.63;;
6898;SDS011;3488;42.616;23.350;2022-12-24T03:05:16;4.00;;;2.00;;
6898;SDS011;3488;42.616;23.350;2022-12-24T03:07:50;4.72;;;2.58;;
6898;SDS011;3488;42.616;23.350;2022-12-24T03:10:26;2.40;;;2.25;;
6898;SDS011;3488;42.616;23.350;2022-12-24T03:13:01;2.10;;;2.00;;
6898;SDS011;3488;42.616;23.350;2022-12-24T03:15:31;5.13;;;2.03;;
6898;SDS011;3488;42.616;23.350;2022-12-24T03:18:01;4.55;;;3.17;;
6898;SDS011;3488;42.616;23.350;2022-12-24T03:20:32;5.57;;;3.20;;
6898;SDS011;3488;42.616;23.350;2022-12-24T03:23:02;4.93;;;3.55;;
6898;SDS011;3488;42.616;23.350;2022-12-24T03:25:29;5.28;;;3.67;;
6898;SDS011;3488;42.616;23.350;2022-12-24T03:27:59;3.33;;;2.95;;
6898;SDS011;3488;42.616;23.350;2022-12-24T03:30:30;6.25;;;4.15;;
6898;SDS011;3488;42.616;23.350;2022-12-24T03:32:57;6.43;;;4.80;;
6898;SDS011;3488;42.616;23.350;2022-12-24T03:35:25;5.82;;;4.13;;
6898;SDS011;3488;42.616;23.350;2022-12-24T03:37:55;5.97;;;5.35;;
6898;SDS011;3488;42.616;23.350;2022-12-24T03:40:22;5.13;;;4.18;;
6898;SDS011;3488;42.616;23.350;2022-12-24T03:42:49;5.93;;;3.67;;
6898;SDS011;3488;42.616;23.350;2022-12-24T03:45:16;4.47;;;3.30;;
6898;SDS011;3488;42.616;23.350;2022-12-24T03:47:43;3.53;;;2.78;;
6898;SDS011;3488;42.616;23.350;2022-12-24T03:50:10;3.13;;;2.92;;
6898;SDS011;3488;42.616;23.350;2022-12-24T03:52:38;4.28;;;3.28;;
6898;SDS011;3488;42.616;23.350;2022-12-24T03:55:05;3.55;;;3.25;;
6898;SDS011;3488;42.616;23.350;2022-12-24T03:57:33;4.13;;;3.08;;
6898;SDS011;3488;42.616;23.350;2022-12-24T04:00:00;5.38;;;3.28;;
6898;SDS011;3488;42.616;23.350;2022-12-24T04:02:28;4.78;;;3.95;;
6898;SDS011;3488;42.616;23.350;2022-12-24T04:04:56;5.05;;;4.40;;
6898;SDS011;3488;42.616;23.350;2022-12-24T04:07:23;5.35;;;3.65;;
6898;SDS011;3488;42.616;23.350;2022-12-24T04:09:51;5.40;;;3.58;;
6898;SDS011;3488;42.616;23.350;2022-12-24T04:12:18;5.50;;;3.70;;
6898;SDS011;3488;42.616;23.350;2022-12-24T04:14:45;4.03;;;3.47;;
6898;SDS011;3488;42.616;23.350;2022-12-24T04:17:12;7.55;;;5.50;;
6898;SDS011;3488;42.616;23.350;2022-12-24T04:19:39;9.02;;;5.93;;
6898;SDS011;3488;42.616;23.350;2022-12-24T04:22:06;8.27;;;5.18;;
6898;SDS011;3488;42.616;23.350;2022-12-24T04:24:33;11.02;;;8.05;;
6898;SDS011;3488;42.616;23.350;2022-12-24T04:27:02;13.75;;;10.20;;
6898;SDS011;3488;42.616;23.350;2022-12-24T04:29:29;16.20;;;10.95;;
6898;SDS011;3488;42.616;23.350;2022-12-24T04:31:56;15.15;;;9.57;;
6898;SDS011;3488;42.616;23.350;2022-12-24T04:34:23;12.23;;;8.77;;
6898;SDS011;3488;42.616;23.350;2022-12-24T04:36:50;8.02;;;6.55;;
6898;SDS011;3488;42.616;23.350;2022-12-24T04:39:17;6.70;;;5.20;;
6898;SDS011;3488;42.616;23.350;2022-12-24T04:41:44;4.97;;;3.97;;
6898;SDS011;3488;42.616;23.350;2022-12-24T04:44:16;4.95;;;3.97;;
6898;SDS011;3488;42.616;23.350;2022-12-24T04:46:43;8.15;;;4.40;;
6898;SDS011;3488;42.616;23.350;2022-12-24T04:49:11;4.13;;;3.63;;
6898;SDS011;3488;42.616;23.350;2022-12-24T04:51:37;3.95;;;3.47;;
6898;SDS011;3488;42.616;23.350;2022-12-24T04:54:04;4.15;;;3.67;;
6898;SDS011;3488;42.616;23.350;2022-12-24T04:56:31;5.28;;;3.35;;
6898;SDS011;3488;42.616;23.350;2022-12-24T04:58:59;3.10;;;2.58;;
6898;SDS011;3488;42.616;23.350;2022-12-24T05:01:28;4.72;;;3.08;;
6898;SDS011;3488;42.616;23.350;2022-12-24T05:03:57;2.50;;;2.30;;
6898;SDS011;3488;42.616;23.350;2022-12-24T05:06:25;7.90;;;4.28;;
6898;SDS011;3488;42.616;23.350;2022-12-24T05:08:55;8.32;;;4.88;;
6898;SDS011;3488;42.616;23.350;2022-12-24T05:11:23;5.43;;;4.63;;
6898;SDS011;3488;42.616;23.350;2022-12-24T05:13:50;9.45;;;6.18;;
6898;SDS011;3488;42.616;23.350;2022-12-24T05:16:18;7.57;;;5.15;;
6898;SDS011;3488;42.616;23.350;2022-12-24T05:18:49;6.43;;;4.80;;
6898;SDS011;3488;42.616;23.350;2022-12-24T05:21:17;6.72;;;5.18;;
6898;SDS011;3488;42.616;23.350;2022-12-24T05:23:47;8.18;;;5.47;;
6898;SDS011;3488;42.616;23.350;2022-12-24T05:26:32;8.77;;;6.32;;
6898;SDS011;3488;42.616;23.350;2022-12-24T05:29:02;10.32;;;5.90;;
6898;SDS011;3488;42.616;23.350;2022-12-24T05:31:31;12.13;;;6.53;;
6898;SDS011;3488;42.616;23.350;2022-12-24T05:34:01;7.25;;;6.05;;
6898;SDS011;3488;42.616;23.350;2022-12-24T05:36:28;8.35;;;6.13;;
6898;SDS011;3488;42.616;23.350;2022-12-24T05:38:55;12.73;;;6.47;;
6898;SDS011;3488;42.616;23.350;2022-12-24T05:41:23;8.55;;;6.40;;
6898;SDS011;3488;42.616;23.350;2022-12-24T05:43:50;9.02;;;6.25;;
6898;SDS011;3488;42.616;23.350;2022-12-24T05:46:19;10.20;;;6.68;;
6898;SDS011;3488;42.616;23.350;2022-12-24T05:48:47;16.92;;;9.88;;
6898;SDS011;3488;42.616;23.350;2022-12-24T05:51:17;17.10;;;10.35;;
6898;SDS011;3488;42.616;23.350;2022-12-24T05:53:46;12.88;;;9.68;;
6898;SDS011;3488;42.616;23.350;2022-12-24T05:56:14;14.85;;;10.38;;
6898;SDS011;3488;42.616;23.350;2022-12-24T05:58:43;21.55;;;10.73;;
6898;SDS011;3488;42.616;23.350;2022-12-24T06:01:10;16.60;;;10.05;;
6898;SDS011;3488;42.616;23.350;2022-12-24T06:03:38;15.73;;;9.80;;
6898;SDS011;3488;42.616;23.350;2022-12-24T06:06:06;13.90;;;9.65;;
6898;SDS011;3488;42.616;23.350;2022-12-24T06:08:36;15.73;;;9.50;;
6898;SDS011;3488;42.616;23.350;2022-12-24T06:11:04;12.43;;;9.23;;
6898;SDS011;3488;42.616;23.350;2022-12-24T06:13:33;15.60;;;10.77;;
6898;SDS011;3488;42.616;23.350;2022-12-24T06:16:01;16.50;;;11.57;;
6898;SDS011;3488;42.616;23.350;2022-12-24T06:18:30;16.48;;;11.05;;
6898;SDS011;3488;42.616;23.350;2022-12-24T06:20:59;17.02;;;11.80;;
6898;SDS011;3488;42.616;23.350;2022-12-24T06:23:27;19.15;;;13.30;;
6898;SDS011;3488;42.616;23.350;2022-12-24T06:25:56;18.85;;;12.90;;
6898;SDS011;3488;42.616;23.350;2022-12-24T06:28:25;24.20;;;13.27;;
6898;SDS011;3488;42.616;23.350;2022-12-24T06:30:52;21.77;;;13.30;;
6898;SDS011;3488;42.616;23.350;2022-12-24T06:33:19;21.10;;;12.60;;
6898;SDS011;3488;42.616;23.350;2022-12-24T06:35:46;23.58;;;13.13;;
6898;SDS011;3488;42.616;23.350;2022-12-24T06:38:14;20.58;;;12.88;;
6898;SDS011;3488;42.616;23.350;2022-12-24T06:40:42;17.33;;;12.55;;
6898;SDS011;3488;42.616;23.350;2022-12-24T06:43:12;18.67;;;12.15;;
6898;SDS011;3488;42.616;23.350;2022-12-24T06:45:42;21.13;;;13.10;;
6898;SDS011;3488;42.616;23.350;2022-12-24T06:48:11;19.77;;;12.07;;
6898;SDS011;3488;42.616;23.350;2022-12-24T06:50:38;23.23;;;14.60;;
6898;SDS011;3488;42.616;23.350;2022-12-24T06:53:05;19.83;;;13.30;;
6898;SDS011;3488;42.616;23.350;2022-12-24T06:55:32;19.02;;;12.15;;
6898;SDS011;3488;42.616;23.350;2022-12-24T06:57:59;19.95;;;12.90;;
6898;SDS011;3488;42.616;23.350;2022-12-24T07:00:27;15.48;;;11.20;;
6898;SDS011;3488;42.616;23.350;2022-12-24T07:02:54;18.27;;;11.40;;
6898;SDS011;3488;42.616;23.350;2022-12-24T07:05:21;20.38;;;12.40;;
6898;SDS011;3488;42.616;23.350;2022-12-24T07:07:49;16.85;;;10.88;;
6898;SDS011;3488;42.616;23.350;2022-12-24T07:10:16;14.45;;;9.75;;
6898;SDS011;3488;42.616;23.350;2022-12-24T07:12:43;16.88;;;10.57;;
6898;SDS011;3488;42.616;23.350;2022-12-24T07:15:11;17.50;;;11.05;;
6898;SDS011;3488;42.616;23.350;2022-12-24T07:17:41;16.35;;;11.07;;
6898;SDS011;3488;42.616;23.350;2022-12-24T07:20:10;13.43;;;10.57;;
6898;SDS011;3488;42.616;23.350;2022-12-24T07:22:39;13.82;;;9.63;;
6898;SDS011;3488;42.616;23.350;2022-12-24T07:25:08;12.13;;;8.85;;
6898;SDS011;3488;42.616;23.350;2022-12-24T07:27:36;12.60;;;9.10;;
6898;SDS011;3488;42.616;23.350;2022-12-24T07:30:07;13.90;;;10.05;;
6898;SDS011;3488;42.616;23.350;2022-12-24T07:32:35;13.10;;;9.50;;
6898;SDS011;3488;42.616;23.350;2022-12-24T07:35:03;10.98;;;9.50;;
6898;SDS011;3488;42.616;23.350;2022-12-24T07:37:31;13.93;;;10.10;;
6898;SDS011;3488;42.616;23.350;2022-12-24T07:39:58;16.15;;;10.57;;
6898;SDS011;3488;42.616;23.350;2022-12-24T07:42:25;17.42;;;11.23;;
6898;SDS011;3488;42.616;23.350;2022-12-24T07:44:53;19.85;;;10.98;;
6898;SDS011;3488;42.616;23.350;2022-12-24T07:47:23;16.17;;;10.95;;
6898;SDS011;3488;42.616;23.350;2022-12-24T07:49:50;15.07;;;10.55;;
6898;SDS011;3488;42.616;23.350;2022-12-24T07:52:24;13.68;;;10.65;;
6898;SDS011;3488;42.616;23.350;2022-12-24T07:54:51;21.77;;;12.35;;
6898;SDS011;3488;42.616;23.350;2022-12-24T07:57:17;15.73;;;11.52;;
6898;SDS011;3488;42.616;23.350;2022-12-24T07:59:44;16.35;;;11.32;;
6898;SDS011;3488;42.616;23.350;2022-12-24T08:02:13;16.25;;;11.75;;
6898;SDS011;3488;42.616;23.350;2022-12-24T08:04:40;18.23;;;10.75;;
6898;SDS011;3488;42.616;23.350;2022-12-24T08:07:10;12.55;;;9.48;;
6898;SDS011;3488;42.616;23.350;2022-12-24T08:09:38;13.23;;;9.15;;
6898;SDS011;3488;42.616;23.350;2022-12-24T08:12:05;15.32;;;9.55;;
6898;SDS011;3488;42.616;23.350;2022-12-24T08:14:32;12.93;;;9.45;;
6898;SDS011;3488;42.616;23.350;2022-12-24T08:16:59;11.63;;;10.02;;
6898;SDS011;3488;42.616;23.350;2022-12-24T08:19:26;15.68;;;7.97;;
6898;SDS011;3488;42.616;23.350;2022-12-24T08:21:53;10.02;;;7.70;;
6898;SDS011;3488;42.616;23.350;2022-12-24T08:24:20;11.93;;;8.55;;
6898;SDS011;3488;42.616;23.350;2022-12-24T08:26:49;13.32;;;8.68;;
6898;SDS011;3488;42.616;23.350;2022-12-24T08:29:16;14.90;;;8.23;;
6898;SDS011;3488;42.616;23.350;2022-12-24T08:31:43;15.57;;;9.45;;
6898;SDS011;3488;42.616;23.350;2022-12-24T08:34:10;14.95;;;8.18;;
6898;SDS011;3488;42.616;23.350;2022-12-24T08:36:37;13.15;;;9.10;;
6898;SDS011;3488;42.616;23.350;2022-12-24T08:39:04;11.20;;;7.35;;
6898;SDS011;3488;42.616;23.350;2022-12-24T08:41:33;10.95;;;7.93;;
6898;SDS011;3488;42.616;23.350;2022-12-24T08:44:02;14.55;;;8.20;;
6898;SDS011;3488;42.616;23.350;2022-12-24T08:46:29;12.70;;;8.73;;
6898;SDS011;3488;42.616;23.350;2022-12-24T08:48:56;12.25;;;9.57;;
6898;SDS011;3488;42.616;23.350;2022-12-24T08:51:23;12.95;;;9.38;;
6898;SDS011;3488;42.616;23.350;2022-12-24T08:53:50;10.88;;;8.10;;
6898;SDS011;3488;42.616;23.350;2022-12-24T08:56:17;9.13;;;6.90;;
6898;SDS011;3488;42.616;23.350;2022-12-24T08:58:44;7.72;;;6.78;;
6898;SDS011;3488;42.616;23.350;2022-12-24T09:01:14;12.95;;;7.60;;
6898;SDS011;3488;42.616;23.350;2022-12-24T09:03:43;12.02;;;8.60;;
6898;SDS011;3488;42.616;23.350;2022-12-24T09:06:10;12.60;;;8.13;;
6898;SDS011;3488;42.616;23.350;2022-12-24T09:08:37;11.13;;;8.23;;
6898;SDS011;3488;42.616;23.350;2022-12-24T09:11:05;12.30;;;9.30;;
6898;SDS011;3488;42.616;23.350;2022-12-24T09:13:33;12.15;;;9.45;;
6898;SDS011;3488;42.616;23.350;2022-12-24T09:16:00;12.95;;;8.90;;
6898;SDS011;3488;42.616;23.350;2022-12-24T09:18:29;12.15;;;8.43;;
6898;SDS011;3488;42.616;23.350;2022-12-24T09:20:59;12.75;;;9.13;;
6898;SDS011;3488;42.616;23.350;2022-12-24T09:26:44;15.80;;;11.15;;
6898;SDS011;3488;42.616;23.350;2022-12-24T09:29:13;16.73;;;11.32;;
6898;SDS011;3488;42.616;23.350;2022-12-24T09:31:41;18.33;;;11.98;;
6898;SDS011;3488;42.616;23.350;2022-12-24T09:34:12;22.13;;;11.35;;
6898;SDS011;3488;42.616;23.350;2022-12-24T09:36:39;17.65;;;12.60;;
6898;SDS011;3488;42.616;23.350;2022-12-24T09:39:06;23.83;;;13.02;;
6898;SDS011;3488;42.616;23.350;2022-12-24T09:41:37;18.80;;;11.50;;
6898;SDS011;3488;42.616;23.350;2022-12-24T09:44:14;16.52;;;10.88;;
6898;SDS011;3488;42.616;23.350;2022-12-24T09:46:50;13.95;;;9.80;;
6898;SDS011;3488;42.616;23.350;2022-12-24T09:49:21;14.75;;;10.48;;
6898;SDS011;3488;42.616;23.350;2022-12-24T09:51:54;21.95;;;12.30;;
6898;SDS011;3488;42.616;23.350;2022-12-24T09:54:27;24.27;;;13.88;;
6898;SDS011;3488;42.616;23.350;2022-12-24T09:56:57;24.23;;;15.20;;
6898;SDS011;3488;42.616;23.350;2022-12-24T09:59:30;30.58;;;19.73;;
6898;SDS011;3488;42.616;23.350;2022-12-24T10:02:07;41.42;;;23.27;;
6898;SDS011;3488;42.616;23.350;2022-12-24T10:04:40;26.40;;;15.13;;
6898;SDS011;3488;42.616;23.350;2022-12-24T10:07:10;25.38;;;15.10;;
6898;SDS011;3488;42.616;23.350;2022-12-24T10:09:55;23.83;;;13.40;;
6898;SDS011;3488;42.616;23.350;2022-12-24T10:12:34;22.98;;;13.52;;
6898;SDS011;3488;42.616;23.350;2022-12-24T10:15:13;21.50;;;13.90;;
6898;SDS011;3488;42.616;23.350;2022-12-24T10:17:48;23.13;;;14.20;;
6898;SDS011;3488;42.616;23.350;2022-12-24T10:20:33;25.65;;;14.57;;
6898;SDS011;3488;42.616;23.350;2022-12-24T10:23:10;26.52;;;14.80;;
6898;SDS011;3488;42.616;23.350;2022-12-24T10:25:45;28.67;;;16.38;;
6898;SDS011;3488;42.616;23.350;2022-12-24T10:28:21;23.23;;;15.75;;
6898;SDS011;3488;42.616;23.350;2022-12-24T10:30:57;26.05;;;17.08;;
6898;SDS011;3488;42.616;23.350;2022-12-24T10:33:28;26.23;;;16.42;;
6898;SDS011;3488;42.616;23.350;2022-12-24T10:36:00;28.73;;;18.52;;
6898;SDS011;3488;42.616;23.350;2022-12-24T10:38:28;30.10;;;19.05;;
6898;SDS011;3488;42.616;23.350;2022-12-24T10:40:57;30.17;;;19.60;;
6898;SDS011;3488;42.616;23.350;2022-12-24T10:43:27;28.70;;;17.95;;
6898;SDS011;3488;42.616;23.350;2022-12-24T10:45:55;31.15;;;20.98;;
6898;SDS011;3488;42.616;23.350;2022-12-24T10:48:25;33.80;;;20.90;;
6898;SDS011;3488;42.616;23.350;2022-12-24T10:50:56;39.90;;;24.92;;
6898;SDS011;3488;42.616;23.350;2022-12-24T10:53:30;40.25;;;24.17;;
6898;SDS011;3488;42.616;23.350;2022-12-24T10:56:03;51.30;;;29.90;;
6898;SDS011;3488;42.616;23.350;2022-12-24T10:58:32;48.42;;;30.48;;
6898;SDS011;3488;42.616;23.350;2022-12-24T11:01:00;62.33;;;34.25;;
6898;SDS011;3488;42.616;23.350;2022-12-24T11:03:29;56.50;;;33.72;;
6898;SDS011;3488;42.616;23.350;2022-12-24T11:05:59;60.17;;;32.95;;
6898;SDS011;3488;42.616;23.350;2022-12-24T11:08:29;56.47;;;32.83;;
6898;SDS011;3488;42.616;23.350;2022-12-24T11:10:57;67.78;;;35.03;;
6898;SDS011;3488;42.616;23.350;2022-12-24T11:13:26;57.95;;;32.22;;
6898;SDS011;3488;42.616;23.350;2022-12-24T11:15:58;60.85;;;34.17;;
6898;SDS011;3488;42.616;23.350;2022-12-24T11:18:28;58.67;;;35.13;;
6898;SDS011;3488;42.616;23.350;2022-12-24T11:20:56;66.38;;;38.38;;
6898;SDS011;3488;42.616;23.350;2022-12-24T11:23:25;65.70;;;38.90;;
6898;SDS011;3488;42.616;23.350;2022-12-24T11:25:55;56.22;;;35.72;;
6898;SDS011;3488;42.616;23.350;2022-12-24T11:28:24;66.30;;;37.15;;
6898;SDS011;3488;42.616;23.350;2022-12-24T11:30:56;60.10;;;33.72;;
6898;SDS011;3488;42.616;23.350;2022-12-24T11:33:29;62.25;;;35.58;;
6898;SDS011;3488;42.616;23.350;2022-12-24T11:35:59;62.92;;;36.60;;
6898;SDS011;3488;42.616;23.350;2022-12-24T11:38:29;63.08;;;35.67;;
6898;SDS011;3488;42.616;23.350;2022-12-24T11:41:03;58.20;;;36.38;;
6898;SDS011;3488;42.616;23.350;2022-12-24T11:43:34;61.15;;;34.63;;
6898;SDS011;3488;42.616;23.350;2022-12-24T11:46:16;57.53;;;33.53;;
6898;SDS011;3488;42.616;23.350;2022-12-24T11:48:45;55.38;;;35.75;;
6898;SDS011;3488;42.616;23.350;2022-12-24T11:51:21;55.15;;;32.42;;
6898;SDS011;3488;42.616;23.350;2022-12-24T11:53:50;57.08;;;32.58;;
6898;SDS011;3488;42.616;23.350;2022-12-24T11:56:28;61.42;;;33.45;;
6898;SDS011;3488;42.616;23.350;2022-12-24T11:59:02;58.97;;;32.40;;
6898;SDS011;3488;42.616;23.350;2022-12-24T12:01:36;46.58;;;28.50;;
6898;SDS011;3488;42.616;23.350;2022-12-24T12:04:12;40.67;;;24.15;;
6898;SDS011;3488;42.616;23.350;2022-12-24T12:06:43;42.70;;;26.55;;
6898;SDS011;3488;42.616;23.350;2022-12-24T12:09:14;42.17;;;25.10;;
6898;SDS011;3488;42.616;23.350;2022-12-24T12:11:47;44.08;;;24.80;;
6898;SDS011;3488;42.616;23.350;2022-12-24T12:14:19;38.92;;;23.77;;
6898;SDS011;3488;42.616;23.350;2022-12-24T12:16:50;38.67;;;25.05;;
6898;SDS011;3488;42.616;23.350;2022-12-24T12:19:30;43.03;;;26.95;;
6898;SDS011;3488;42.616;23.350;2022-12-24T12:22:04;40.38;;;27.27;;
6898;SDS011;3488;42.616;23.350;2022-12-24T12:24:33;46.40;;;27.02;;
6898;SDS011;3488;42.616;23.350;2022-12-24T12:27:06;44.33;;;28.05;;
6898;SDS011;3488;42.616;23.350;2022-12-24T12:29:44;40.75;;;26.98;;
6898;SDS011;3488;42.616;23.350;2022-12-24T12:32:20;51.03;;;27.45;;
6898;SDS011;3488;42.616;23.350;2022-12-24T12:34:58;42.15;;;25.17;;
6898;SDS011;3488;42.616;23.350;2022-12-24T12:37:30;40.33;;;24.80;;
6898;SDS011;3488;42.616;23.350;2022-12-24T12:40:00;37.30;;;24.70;;
6898;SDS011;3488;42.616;23.350;2022-12-24T12:42:30;46.53;;;26.50;;
6898;SDS011;3488;42.616;23.350;2022-12-24T12:45:08;46.17;;;26.52;;
6898;SDS011;3488;42.616;23.350;2022-12-24T12:47:58;43.97;;;26.00;;
6898;SDS011;3488;42.616;23.350;2022-12-24T12:50:35;48.55;;;28.02;;
6898;SDS011;3488;42.616;23.350;2022-12-24T12:53:15;43.53;;;27.20;;
6898;SDS011;3488;42.616;23.350;2022-12-24T12:55:55;47.50;;;27.40;;
6898;SDS011;3488;42.616;23.350;2022-12-24T12:58:33;69.22;;;38.35;;
6898;SDS011;3488;42.616;23.350;2022-12-24T13:01:07;47.97;;;29.15;;
6898;SDS011;3488;42.616;23.350;2022-12-24T13:03:48;50.63;;;28.50;;
6898;SDS011;3488;42.616;23.350;2022-12-24T13:06:33;50.97;;;29.00;;
6898;SDS011;3488;42.616;23.350;2022-12-24T13:09:29;49.53;;;28.58;;
6898;SDS011;3488;42.616;23.350;2022-12-24T13:12:21;56.15;;;28.80;;
6898;SDS011;3488;42.616;23.350;2022-12-24T13:15:18;68.22;;;36.35;;
6898;SDS011;3488;42.616;23.350;2022-12-24T13:18:11;41.95;;;27.77;;
6898;SDS011;3488;42.616;23.350;2022-12-24T13:20:49;43.05;;;27.20;;
6898;SDS011;3488;42.616;23.350;2022-12-24T13:23:18;44.15;;;28.02;;
6898;SDS011;3488;42.616;23.350;2022-12-24T13:25:48;54.70;;;26.58;;
6898;SDS011;3488;42.616;23.350;2022-12-24T13:28:24;43.03;;;27.20;;
6898;SDS011;3488;42.616;23.350;2022-12-24T13:33:56;53.28;;;32.20;;
6898;SDS011;3488;42.616;23.350;2022-12-24T13:36:24;50.15;;;28.00;;
6898;SDS011;3488;42.616;23.350;2022-12-24T13:42:45;46.13;;;27.90;;
6898;SDS011;3488;42.616;23.350;2022-12-24T13:45:40;46.08;;;29.50;;
6898;SDS011;3488;42.616;23.350;2022-12-24T13:48:28;53.72;;;28.55;;
6898;SDS011;3488;42.616;23.350;2022-12-24T13:50:58;52.97;;;29.73;;
6898;SDS011;3488;42.616;23.350;2022-12-24T13:53:43;64.88;;;35.40;;
6898;SDS011;3488;42.616;23.350;2022-12-24T13:56:18;54.22;;;31.08;;
6898;SDS011;3488;42.616;23.350;2022-12-24T13:58:51;53.88;;;34.30;;
6898;SDS011;3488;42.616;23.350;2022-12-24T14:01:34;55.05;;;32.03;;
6898;SDS011;3488;42.616;23.350;2022-12-24T14:04:06;49.30;;;31.08;;
6898;SDS011;3488;42.616;23.350;2022-12-24T14:06:35;48.30;;;29.33;;
6898;SDS011;3488;42.616;23.350;2022-12-24T14:09:06;52.00;;;32.15;;
6898;SDS011;3488;42.616;23.350;2022-12-24T14:14:40;50.55;;;31.90;;
6898;SDS011;3488;42.616;23.350;2022-12-24T14:17:12;42.45;;;28.58;;
6898;SDS011;3488;42.616;23.350;2022-12-24T14:19:49;55.92;;;31.23;;
6898;SDS011;3488;42.616;23.350;2022-12-24T14:22:22;47.25;;;31.13;;
6898;SDS011;3488;42.616;23.350;2022-12-24T14:24:54;51.45;;;31.25;;
6898;SDS011;3488;42.616;23.350;2022-12-24T14:27:31;56.78;;;32.88;;
6898;SDS011;3488;42.616;23.350;2022-12-24T14:30:04;72.10;;;39.22;;
6898;SDS011;3488;42.616;23.350;2022-12-24T14:32:34;77.45;;;41.83;;
6898;SDS011;3488;42.616;23.350;2022-12-24T14:35:13;73.03;;;41.97;;
6898;SDS011;3488;42.616;23.350;2022-12-24T14:37:44;65.05;;;39.83;;
6898;SDS011;3488;42.616;23.350;2022-12-24T14:40:18;81.40;;;45.13;;
6898;SDS011;3488;42.616;23.350;2022-12-24T14:43:04;76.32;;;44.22;;
6898;SDS011;3488;42.616;23.350;2022-12-24T14:45:43;75.63;;;45.00;;
6898;SDS011;3488;42.616;23.350;2022-12-24T14:48:15;137.25;;;66.10;;
6898;SDS011;3488;42.616;23.350;2022-12-24T14:50:54;69.07;;;42.03;;
6898;SDS011;3488;42.616;23.350;2022-12-24T14:53:31;62.92;;;39.30;;
6898;SDS011;3488;42.616;23.350;2022-12-24T14:56:14;65.22;;;37.65;;
6898;SDS011;3488;42.616;23.350;2022-12-24T14:58:43;60.83;;;36.42;;
6898;SDS011;3488;42.616;23.350;2022-12-24T15:01:20;54.42;;;33.15;;
6898;SDS011;3488;42.616;23.350;2022-12-24T15:03:59;61.17;;;33.40;;
6898;SDS011;3488;42.616;23.350;2022-12-24T15:06:29;47.92;;;29.20;;
6898;SDS011;3488;42.616;23.350;2022-12-24T15:08:59;40.80;;;25.73;;
6898;SDS011;3488;42.616;23.350;2022-12-24T15:11:26;68.68;;;37.72;;
6898;SDS011;3488;42.616;23.350;2022-12-24T15:13:54;39.70;;;20.77;;
6898;SDS011;3488;42.616;23.350;2022-12-24T15:16:25;24.13;;;16.95;;
6898;SDS011;3488;42.616;23.350;2022-12-24T15:18:55;27.77;;;17.92;;